Terminal Aerodrome Forecast
Issued by NWS Portland, OR

Home | Current Version | Previous Version | Text Only | Print | Product List | Glossary On
Versions: 1 2 3 4 5 6 7 8 9 10 11 12 13 14 15 16 17 18 19 20 21 22 23 24 25 26 27 28 29 30 31 32 33 34
687
FTUS46 KPQR 070530
TAFEUG
TAF
KEUG 070530Z 0706/0806 VRB03KT 5SM BR OVC009
     FM070800 09003KT 2SM BR BKN004 OVC008
     FM072000 04005KT P6SM SCT015
     FM072300 02006KT P6SM SCT120 BKN200=

USA.gov is the U.S. government's official web portal to all federal, state and local government web resources and services.